Time;durP1;ratioP1;P1;durP2;ratioP2;P2;SDS_P1;SDS_P2;PMS_P1;PMS_P2;Temp;Humidity;BMP_temperature;BMP_pressure;BME280_temperature;BME280_humidity;BME280_pressure;Samples;Min_cycle;Max_cycle;Signal;HPM_P1;HPM_P2
2023/03/18 00:01:57;;;;;;;6.20;4.63;;;;;;;9.02;80.66;100530.03;5033200;28;20262;-47
2023/03/18 00:04:23;;;;;;;5.50;4.60;;;;;;;8.97;80.67;100535.56;5030054;28;20204;-46
2023/03/18 00:06:49;;;;;;;5.13;4.45;;;;;;;8.98;80.43;100529.28;5028929;28;20323;-48
2023/03/18 00:09:15;;;;;;;6.28;4.60;;;;;;;8.94;80.67;100532.97;5030047;28;20940;-48
2023/03/18 00:11:41;;;;;;;7.50;4.53;;;;;;;8.94;80.54;100550.81;5029458;28;20440;-47
2023/03/18 00:14:08;;;;;;;4.78;4.38;;;;;;;8.89;80.66;100532.28;5028925;28;20200;-46
2023/03/18 00:16:35;;;;;;;5.80;4.47;;;;;;;8.86;80.72;100529.75;5026440;28;20192;-47
2023/03/18 00:19:02;;;;;;;5.35;4.60;;;;;;;8.90;80.74;100530.47;5038459;28;20203;-49
2023/03/18 00:21:29;;;;;;;6.75;4.82;;;;;;;8.89;80.71;100531.41;5040336;28;20176;-46
2023/03/18 00:23:55;;;;;;;6.72;4.50;;;;;;;8.84;80.90;100528.91;5020874;28;20787;-46
2023/03/18 00:26:26;;;;;;;5.63;4.43;;;;;;;8.78;81.14;100531.81;5028727;28;20179;-48
2023/03/18 00:28:54;;;;;;;7.68;4.72;;;;;;;8.76;81.00;100536.31;5029575;28;20184;-49
2023/03/18 00:31:20;;;;;;;8.48;4.22;;;;;;;8.66;81.53;100533.97;5026615;28;20187;-52
2023/03/18 00:33:46;;;;;;;5.30;4.70;;;;;;;8.68;81.57;100533.03;5025893;28;20670;-47
2023/03/18 00:36:14;;;;;;;6.90;4.70;;;;;;;8.67;81.61;100532.19;5036933;28;20233;-48
2023/03/18 00:38:41;;;;;;;5.00;4.47;;;;;;;8.62;82.04;100532.34;5039262;28;20203;-49
2023/03/18 00:41:10;;;;;;;6.55;4.47;;;;;;;8.63;81.77;100547.41;5006898;28;20188;-48
2023/03/18 00:43:45;;;;;;;7.20;4.97;;;;;;;8.61;82.00;100538.59;5017850;28;20236;-50
2023/03/18 00:46:16;;;;;;;5.68;4.60;;;;;;;8.72;81.64;100530.19;5032397;28;20179;-47
2023/03/18 00:48:43;;;;;;;8.35;4.57;;;;;;;8.62;81.80;100513.66;5030404;28;20195;-47
2023/03/18 00:51:12;;;;;;;6.18;4.38;;;;;;;8.64;81.93;100517.13;5030944;28;20380;-47
2023/03/18 00:53:47;;;;;;;6.63;4.32;;;;;;;8.66;81.72;100517.09;5031291;28;20580;-47
2023/03/18 00:56:14;;;;;;;6.13;4.75;;;;;;;8.66;81.82;100525.97;5035259;28;20188;-47
2023/03/18 00:58:40;;;;;;;5.90;4.70;;;;;;;8.63;81.70;100520.72;5027551;28;20228;-48
2023/03/18 01:01:07;;;;;;;5.82;4.30;;;;;;;8.62;81.68;100528.81;5010278;28;20289;-47
2023/03/18 01:03:34;;;;;;;6.95;4.47;;;;;;;8.61;82.10;100521.72;5011980;28;20570;-47
2023/03/18 01:06:01;;;;;;;6.13;4.25;;;;;;;8.61;81.98;100530.56;5019985;28;20203;-47
2023/03/18 01:08:28;;;;;;;6.18;4.25;;;;;;;8.64;81.73;100526.97;4998153;28;20204;-47
2023/03/18 01:10:54;;;;;;;8.45;4.60;;;;;;;8.67;81.71;100516.16;5019099;28;20230;-49
2023/03/18 01:13:20;;;;;;;7.15;4.18;;;;;;;8.69;81.68;100513.44;5029300;28;20661;-47
2023/03/18 01:15:46;;;;;;;5.93;4.43;;;;;;;8.68;81.48;100519.69;5030439;28;20289;-48
2023/03/18 01:18:12;;;;;;;5.70;4.30;;;;;;;8.70;81.58;100525.84;5031786;28;20207;-48
2023/03/18 01:20:38;;;;;;;7.68;4.30;;;;;;;8.66;81.82;100528.66;5026572;28;20208;-48
2023/03/18 01:23:06;;;;;;;5.60;4.38;;;;;;;8.69;81.66;100526.78;5009640;28;20183;-48
2023/03/18 01:25:32;;;;;;;4.88;4.05;;;;;;;8.73;81.74;100518.63;5033742;28;20274;-48
2023/03/18 01:27:58;;;;;;;7.78;4.40;;;;;;;8.74;81.54;100516.81;5030545;28;20672;-47
2023/03/18 01:30:24;;;;;;;7.78;4.53;;;;;;;8.71;81.60;100525.81;5024615;28;20212;-47
2023/03/18 01:32:52;;;;;;;5.45;4.10;;;;;;;8.69;81.65;100529.47;5015982;28;20266;-47
2023/03/18 01:35:18;;;;;;;7.53;4.63;;;;;;;8.76;81.57;100525.63;5030606;28;20231;-47
2023/03/18 01:37:46;;;;;;;6.45;4.30;;;;;;;8.75;81.67;100523.91;5012521;28;20199;-47
2023/03/18 01:40:13;;;;;;;4.63;4.22;;;;;;;8.74;81.69;100523.00;5010136;28;20238;-48
2023/03/18 01:42:40;;;;;;;4.32;3.90;;;;;;;8.76;81.47;100525.63;5010001;28;20204;-47
2023/03/18 01:45:33;;;;;;;5.35;4.47;;;;;;;8.73;81.75;100520.41;5030313;28;20269;-47
2023/03/18 01:48:00;;;;;;;4.20;3.70;;;;;;;8.79;81.62;100514.84;5009980;28;20733;-47
2023/03/18 01:50:36;;;;;;;4.18;3.72;;;;;;;8.76;81.66;100518.50;5034016;28;20188;-46
2023/03/18 01:53:10;;;;;;;5.68;4.38;;;;;;;8.75;81.68;100518.56;5034684;28;20186;-48
2023/03/18 01:55:38;;;;;;;5.75;3.95;;;;;;;8.81;81.56;100510.31;5023779;28;20731;-48
2023/03/18 01:58:19;;;;;;;5.45;4.03;;;;;;;8.81;81.79;100513.88;5009082;28;20191;-48
2023/03/18 02:00:52;;;;;;;6.00;4.20;;;;;;;8.88;81.51;100509.19;5015030;28;20183;-47
2023/03/18 02:03:19;;;;;;;6.40;4.53;;;;;;;8.90;81.18;100496.63;5033893;28;20306;-47
2023/03/18 02:05:44;;;;;;;4.43;3.85;;;;;;;8.91;81.13;100498.38;5017011;28;20525;-47
2023/03/18 02:08:10;;;;;;;5.35;4.15;;;;;;;8.92;81.07;100497.47;5032830;28;20219;-48
2023/03/18 02:10:37;;;;;;;5.50;3.80;;;;;;;8.91;81.07;100501.03;5040733;28;20269;-48
2023/03/18 02:13:06;;;;;;;6.70;4.03;;;;;;;8.86;81.24;100500.34;5038198;28;20628;-47
2023/03/18 02:15:43;;;;;;;6.70;3.85;;;;;;;8.85;81.33;100506.59;5009631;28;20191;-47
2023/03/18 02:18:23;;;;;;;7.35;4.18;;;;;;;8.83;81.47;100511.13;5025266;28;20961;-48
2023/03/18 02:20:58;;;;;;;4.18;3.65;;;;;;;8.79;81.68;100515.72;5014318;28;20279;-48
2023/03/18 02:23:42;;;;;;;4.53;3.95;;;;;;;8.83;81.71;100514.69;5016813;28;20198;-47
2023/03/18 02:26:28;;;;;;;5.05;4.00;;;;;;;8.79;81.82;100518.41;5018827;28;20239;-48
2023/03/18 02:29:01;;;;;;;4.53;3.75;;;;;;;8.82;81.79;100531.63;5018348;28;20192;-47
2023/03/18 02:31:28;;;;;;;7.15;3.85;;;;;;;8.81;81.90;100523.66;5010312;28;20192;-48
2023/03/18 02:33:55;;;;;;;6.28;3.85;;;;;;;8.74;82.21;100524.81;5031872;28;20204;-48
2023/03/18 02:36:26;;;;;;;4.80;3.90;;;;;;;8.65;82.79;100534.91;5027844;28;20192;-47
2023/03/18 02:38:53;;;;;;;6.22;3.75;;;;;;;8.64;83.10;100530.50;5038147;28;20269;-48
2023/03/18 02:41:27;;;;;;;5.63;4.10;;;;;;;8.67;83.35;100524.16;5016494;28;20314;-48
2023/03/18 02:43:54;;;;;;;5.68;4.43;;;;;;;8.63;83.64;100526.06;5006632;28;20211;-47
2023/03/18 02:46:20;;;;;;;8.27;4.40;;;;;;;8.60;84.33;100528.00;5000930;28;20608;-53
2023/03/18 02:48:47;;;;;;;6.32;4.13;;;;;;;8.62;84.68;100527.00;5033620;28;20184;-46
2023/03/18 02:51:15;;;;;;;5.90;4.30;;;;;;;8.56;85.32;100535.22;5016891;28;20204;-44
2023/03/18 02:53:41;;;;;;;4.13;3.45;;;;;;;8.57;85.64;100541.44;5012062;28;20203;-47
2023/03/18 02:56:08;;;;;;;5.95;4.32;;;;;;;8.53;86.25;100538.00;5008940;28;20620;-47
2023/03/18 02:58:34;;;;;;;6.22;4.18;;;;;;;8.48;87.14;100547.94;5017774;28;20226;-47
2023/03/18 03:01:02;;;;;;;5.70;4.05;;;;;;;8.48;88.30;100547.09;5014408;28;20184;-46
2023/03/18 03:03:28;;;;;;;5.53;3.90;;;;;;;8.44;88.88;100547.19;5023268;28;20180;-49
2023/03/18 03:05:55;;;;;;;7.82;4.10;;;;;;;8.46;89.38;100555.13;5030535;28;20449;-48
2023/03/18 03:08:23;;;;;;;7.93;4.07;;;;;;;8.38;90.40;100546.50;5018338;28;20673;-48
2023/03/18 03:10:51;;;;;;;5.40;4.03;;;;;;;8.35;91.22;100557.28;5021257;28;20283;-48
2023/03/18 03:13:19;;;;;;;5.40;4.00;;;;;;;8.38;91.56;100551.84;5010037;28;20558;-49
2023/03/18 03:15:45;;;;;;;7.35;4.18;;;;;;;8.33;92.26;100548.44;5011156;28;20281;-49
2023/03/18 03:18:11;;;;;;;4.65;3.83;;;;;;;8.34;93.25;100555.53;5005581;28;20195;-49
2023/03/18 03:20:38;;;;;;;4.47;4.03;;;;;;;8.31;93.71;100556.53;5033744;28;20245;-48
2023/03/18 03:23:10;;;;;;;4.63;4.00;;;;;;;8.32;94.01;100555.59;5029908;28;20189;-47
2023/03/18 03:25:36;;;;;;;5.72;4.55;;;;;;;8.29;94.60;100555.69;5026298;28;20677;-48
2023/03/18 03:28:02;;;;;;;5.28;4.35;;;;;;;8.27;94.86;100554.00;5039051;28;20658;-49
2023/03/18 03:30:29;;;;;;;5.93;4.60;;;;;;;8.22;95.46;100555.03;5030239;28;20185;-47
2023/03/18 03:32:55;;;;;;;6.50;4.47;;;;;;;8.18;96.03;100545.38;5025514;28;20179;-45
2023/03/18 03:35:22;;;;;;;4.82;4.35;;;;;;;8.23;96.11;100550.56;5028875;28;20212;-48
2023/03/18 03:37:48;;;;;;;5.43;4.10;;;;;;;8.24;96.01;100546.94;5018397;28;20229;-47
2023/03/18 03:40:17;;;;;;;5.20;4.30;;;;;;;8.27;96.28;100554.00;5033231;28;20298;-48
2023/03/18 03:42:44;;;;;;;8.63;4.47;;;;;;;8.23;96.45;100547.88;5009689;28;20219;-47
2023/03/18 03:45:12;;;;;;;7.97;4.38;;;;;;;8.32;95.98;100554.72;5018934;28;20739;-48
2023/03/18 03:47:39;;;;;;;4.60;4.10;;;;;;;8.30;95.99;100540.56;5017092;28;20187;-48
2023/03/18 03:50:06;;;;;;;4.20;3.80;;;;;;;8.32;95.77;100541.38;5020016;28;20181;-48
2023/03/18 03:52:32;;;;;;;5.97;4.03;;;;;;;8.32;96.13;100552.03;5009553;28;20219;-46
2023/03/18 03:54:59;;;;;;;5.28;4.18;;;;;;;8.35;95.47;100550.16;5032692;28;20638;-50
2023/03/18 03:57:26;;;;;;;5.25;4.75;;;;;;;8.35;95.57;100546.59;5021640;28;20177;-47
2023/03/18 03:59:52;;;;;;;6.75;4.25;;;;;;;8.34;95.29;100555.53;5020868;28;20207;-49
2023/03/18 04:02:26;;;;;;;6.07;4.03;;;;;;;8.33;95.25;100553.78;5017155;28;20191;-45
2023/03/18 04:04:52;;;;;;;4.57;4.03;;;;;;;8.35;95.29;100552.81;4998766;28;20208;-48
2023/03/18 04:07:25;;;;;;;5.05;3.90;;;;;;;8.36;94.89;100559.03;5014787;28;20184;-49
2023/03/18 04:09:51;;;;;;;6.78;3.88;;;;;;;8.35;95.32;100554.59;5019897;28;20181;-48
2023/03/18 04:12:18;;;;;;;5.25;4.10;;;;;;;8.39;95.15;100566.94;5021416;28;20224;-48
2023/03/18 04:14:49;;;;;;;6.22;4.30;;;;;;;8.36;95.49;100575.91;5034264;28;20401;-48
2023/03/18 04:17:15;;;;;;;5.18;4.20;;;;;;;8.37;95.53;100566.09;5023423;28;20191;-48
2023/03/18 04:19:41;;;;;;;6.65;4.40;;;;;;;8.36;95.67;100578.59;5024903;28;20218;-49
2023/03/18 04:22:07;;;;;;;4.85;3.63;;;;;;;8.36;95.60;100580.38;5021948;28;20562;-49
2023/03/18 04:24:32;;;;;;;7.07;4.45;;;;;;;8.32;95.90;100581.41;5033041;28;20213;-49
2023/03/18 04:26:58;;;;;;;4.63;3.92;;;;;;;8.33;96.25;100588.47;5029284;28;20187;-49
2023/03/18 04:29:24;;;;;;;6.32;4.13;;;;;;;8.31;96.61;100575.19;5008820;28;20258;-48
2023/03/18 04:31:50;;;;;;;7.55;4.28;;;;;;;8.31;96.81;100568.97;4997062;28;20206;-48
2023/03/18 04:34:17;;;;;;;5.65;4.30;;;;;;;8.31;96.62;100550.28;5016746;28;20308;-47
2023/03/18 04:36:44;;;;;;;4.68;3.92;;;;;;;8.33;96.67;100552.00;5022465;28;20188;-48
2023/03/18 04:39:09;;;;;;;5.60;3.70;;;;;;;8.34;96.91;100566.22;5028767;28;20211;-49
2023/03/18 04:41:36;;;;;;;7.50;4.35;;;;;;;8.32;97.15;100574.25;5031967;28;20206;-48
2023/03/18 04:44:03;;;;;;;5.25;4.07;;;;;;;8.34;97.58;100566.22;5017369;28;20666;-49
2023/03/18 04:46:38;;;;;;;5.28;3.63;;;;;;;8.38;97.45;100541.16;5026567;28;20672;-50
2023/03/18 04:49:04;;;;;;;7.75;4.25;;;;;;;8.43;97.43;100556.13;5009555;28;20230;-49
2023/03/18 04:51:30;;;;;;;6.63;4.57;;;;;;;8.44;97.54;100563.22;5007907;28;20211;-48
2023/03/18 04:53:56;;;;;;;7.93;3.85;;;;;;;8.44;97.56;100579.25;5033233;28;20721;-48
2023/03/18 04:56:25;;;;;;;6.82;4.13;;;;;;;8.50;97.93;100577.28;5027118;28;20215;-49
2023/03/18 04:58:52;;;;;;;6.85;4.30;;;;;;;8.53;97.57;100562.03;5027400;28;20645;-50
2023/03/18 05:01:24;;;;;;;8.07;4.35;;;;;;;8.53;97.53;100551.38;5033641;28;20671;-49
2023/03/18 05:03:50;;;;;;;5.55;4.60;;;;;;;8.58;97.50;100554.72;5005821;28;20246;-49
2023/03/18 05:06:24;;;;;;;8.02;4.25;;;;;;;8.61;97.33;100565.28;5009187;28;20188;-49
2023/03/18 05:09:04;;;;;;;7.78;4.63;;;;;;;8.64;97.08;100572.34;5028758;28;20175;-48
2023/03/18 05:11:32;;;;;;;8.95;4.07;;;;;;;8.64;97.07;100554.53;5031891;28;20269;-47
2023/03/18 05:14:04;;;;;;;6.47;4.20;;;;;;;8.66;96.96;100560.69;5021371;28;20209;-49
2023/03/18 05:16:38;;;;;;;9.68;4.32;;;;;;;8.67;96.89;100553.53;5019559;28;20202;-48
2023/03/18 05:19:04;;;;;;;5.97;4.40;;;;;;;8.65;97.04;100547.38;5032073;28;20579;-48
2023/03/18 05:21:30;;;;;;;5.30;4.28;;;;;;;8.61;97.22;100559.09;5016900;28;20207;-48
2023/03/18 05:23:56;;;;;;;5.15;4.47;;;;;;;8.67;97.49;100558.88;5010148;28;20210;-49
2023/03/18 05:26:23;;;;;;;6.57;4.50;;;;;;;8.68;97.47;100563.31;5033751;28;20184;-48
2023/03/18 05:28:49;;;;;;;8.50;4.43;;;;;;;8.66;97.79;100574.03;5021951;28;20213;-49
2023/03/18 05:31:25;;;;;;;7.85;4.50;;;;;;;8.62;98.13;100576.88;5029185;28;20293;-50
2023/03/18 05:33:51;;;;;;;5.40;4.32;;;;;;;8.59;98.29;100577.84;5030582;28;20200;-47
2023/03/18 05:36:18;;;;;;;7.28;4.97;;;;;;;8.59;98.80;100572.53;5020061;28;20198;-51
2023/03/18 05:38:59;;;;;;;5.88;4.43;;;;;;;8.67;98.83;100574.91;5018071;28;20234;-48
2023/03/18 05:41:25;;;;;;;7.25;4.90;;;;;;;8.61;98.89;100581.31;5017974;28;20559;-49
2023/03/18 05:43:51;;;;;;;9.18;5.32;;;;;;;8.61;99.12;100569.78;5023143;28;20208;-50
2023/03/18 05:46:17;;;;;;;7.80;4.75;;;;;;;8.60;99.34;100563.56;5044529;28;20275;-47
2023/03/18 05:48:58;;;;;;;6.60;5.35;;;;;;;8.59;99.93;100567.19;5018447;28;20175;-49
2023/03/18 05:51:29;;;;;;;8.70;5.05;;;;;;;8.61;100.00;100585.78;5010969;28;20220;-50
2023/03/18 05:53:56;;;;;;;6.35;4.60;;;;;;;8.63;100.00;100584.81;5014185;28;20254;-49
2023/03/18 05:56:25;;;;;;;7.35;4.60;;;;;;;8.71;100.00;100594.38;5031871;28;20314;-49
2023/03/18 05:58:56;;;;;;;5.70;4.97;;;;;;;8.79;100.00;100595.88;5021793;28;20306;-48
2023/03/18 06:01:43;;;;;;;8.20;5.00;;;;;;;8.77;100.00;100588.84;5028692;28;20206;-49
2023/03/18 06:04:10;;;;;;;6.43;4.93;;;;;;;8.76;100.00;100590.59;5003633;28;20314;-50
2023/03/18 06:06:39;;;;;;;7.47;4.75;;;;;;;8.82;100.00;100595.75;5036751;28;20274;-48
2023/03/18 06:09:07;;;;;;;10.18;5.50;;;;;;;8.78;100.00;100594.09;5032171;28;20192;-50
2023/03/18 06:11:33;;;;;;;10.50;6.00;;;;;;;8.79;100.00;100600.31;5018797;28;20222;-48
2023/03/18 06:13:59;;;;;;;8.35;5.15;;;;;;;8.78;100.00;100604.78;5015078;28;20215;-49
2023/03/18 06:16:25;;;;;;;7.00;5.47;;;;;;;8.79;100.00;100603.88;5007146;28;20199;-48
2023/03/18 06:18:54;;;;;;;6.65;5.47;;;;;;;8.81;100.00;100611.81;5015658;28;20270;-48
2023/03/18 06:21:19;;;;;;;7.47;5.63;;;;;;;8.84;100.00;100615.28;5029471;28;20187;-48
2023/03/18 06:23:45;;;;;;;8.50;6.03;;;;;;;8.83;100.00;100610.88;5024493;28;20200;-49
2023/03/18 06:26:10;;;;;;;10.13;5.93;;;;;;;8.84;100.00;100611.72;5036960;28;20190;-49
2023/03/18 06:28:45;;;;;;;10.40;5.80;;;;;;;8.83;100.00;100617.97;5037132;28;20171;-48
2023/03/18 06:31:11;;;;;;;7.05;5.10;;;;;;;8.86;100.00;100620.56;5028279;28;20181;-47
2023/03/18 06:33:38;;;;;;;7.53;5.47;;;;;;;8.85;100.00;100622.38;5013836;28;20212;-44
2023/03/18 06:36:06;;;;;;;7.57;5.25;;;;;;;8.87;100.00;100616.94;5012348;28;20631;-49
2023/03/18 06:38:32;;;;;;;8.55;5.65;;;;;;;8.84;100.00;100625.09;5010402;28;20670;-47
2023/03/18 06:40:58;;;;;;;6.35;5.38;;;;;;;8.84;100.00;100630.44;5029620;28;20180;-48
2023/03/18 06:43:25;;;;;;;8.40;5.55;;;;;;;8.85;100.00;100626.81;5030702;28;20179;-48
2023/03/18 06:45:52;;;;;;;8.90;5.78;;;;;;;8.85;100.00;100633.06;5042532;28;20594;-48
2023/03/18 06:48:18;;;;;;;12.30;5.93;;;;;;;8.85;100.00;100624.16;5020748;28;20286;-49
2023/03/18 06:50:45;;;;;;;9.20;6.07;;;;;;;8.89;100.00;100630.28;5004543;28;20314;-48
2023/03/18 06:53:18;;;;;;;9.88;5.90;;;;;;;8.93;100.00;100646.13;5031403;28;20215;-49
2023/03/18 06:55:45;;;;;;;9.10;6.07;;;;;;;9.00;100.00;100636.97;5030156;28;20195;-48
2023/03/18 06:58:11;;;;;;;7.35;5.90;;;;;;;8.99;100.00;100639.72;5013844;28;20192;-49
2023/03/18 07:00:46;;;;;;;8.02;5.97;;;;;;;9.04;100.00;100640.44;5033350;28;20179;-48
2023/03/18 07:03:20;;;;;;;8.52;5.97;;;;;;;9.08;100.00;100648.28;5008930;28;20180;-48
2023/03/18 07:05:47;;;;;;;8.15;6.03;;;;;;;9.10;100.00;100647.38;5023529;28;20214;-49
2023/03/18 07:08:14;;;;;;;7.82;6.13;;;;;;;9.11;100.00;100655.31;5026886;28;20634;-49
2023/03/18 07:10:41;;;;;;;7.07;6.00;;;;;;;9.12;100.00;100646.38;5022944;28;20662;-49
2023/03/18 07:13:09;;;;;;;10.02;6.38;;;;;;;9.14;100.00;100648.97;5017824;28;20186;-48
2023/03/18 07:15:37;;;;;;;8.30;6.18;;;;;;;9.19;100.00;100649.72;5001126;28;20196;-49
2023/03/18 07:18:05;;;;;;;8.98;6.38;;;;;;;9.22;100.00;100660.28;5019290;28;20690;-50
2023/03/18 07:20:32;;;;;;;10.07;6.15;;;;;;;9.23;100.00;100651.34;5006676;28;20230;-50
2023/03/18 07:22:58;;;;;;;8.48;5.90;;;;;;;9.26;100.00;100656.56;5014348;28;20180;-48
2023/03/18 07:25:23;;;;;;;7.93;6.30;;;;;;;9.28;100.00;100655.59;5031267;28;20212;-48
2023/03/18 07:27:49;;;;;;;8.40;6.53;;;;;;;9.28;100.00;100662.75;5030349;28;20678;-49
2023/03/18 07:30:17;;;;;;;8.77;6.50;;;;;;;9.32;100.00;100663.53;5032093;28;20239;-48
2023/03/18 07:32:44;;;;;;;8.18;6.10;;;;;;;9.33;100.00;100657.22;5022256;28;20185;-49
2023/03/18 07:35:12;;;;;;;8.20;6.35;;;;;;;9.37;100.00;100657.06;5014126;28;20227;-49
2023/03/18 07:37:39;;;;;;;8.15;6.28;;;;;;;9.43;100.00;100675.56;5021061;28;20707;-48
2023/03/18 07:40:05;;;;;;;9.02;6.57;;;;;;;9.48;100.00;100689.63;5016484;28;20299;-48
2023/03/18 07:42:31;;;;;;;6.93;6.22;;;;;;;9.57;100.00;100698.25;5030202;28;20203;-50
2023/03/18 07:44:57;;;;;;;8.85;6.43;;;;;;;9.56;100.00;100697.41;5033050;28;20245;-49
2023/03/18 07:47:23;;;;;;;10.73;7.25;;;;;;;9.59;100.00;100694.59;5027618;28;20204;-49
2023/03/18 07:49:50;;;;;;;13.15;7.40;;;;;;;9.63;100.00;100685.53;5030711;28;20185;-48
2023/03/18 07:52:17;;;;;;;11.55;7.43;;;;;;;9.68;100.00;100690.72;5035388;28;20175;-49
2023/03/18 07:54:43;;;;;;;15.23;7.22;;;;;;;9.70;100.00;100691.53;5029899;28;20200;-50
2023/03/18 07:57:09;;;;;;;14.55;6.63;;;;;;;9.76;100.00;100706.50;5027300;28;20180;-51
2023/03/18 07:59:36;;;;;;;10.30;6.90;;;;;;;9.75;100.00;100697.59;5037657;28;20212;-50
2023/03/18 08:02:03;;;;;;;8.63;6.28;;;;;;;9.80;100.00;100697.44;5038201;28;20191;-47
2023/03/18 08:04:30;;;;;;;10.38;7.10;;;;;;;9.81;100.00;100699.16;5029032;28;20196;-47
2023/03/18 08:06:56;;;;;;;12.38;7.38;;;;;;;9.87;100.00;100706.97;5029032;28;20211;-48
2023/03/18 08:09:23;;;;;;;9.82;7.43;;;;;;;9.93;100.00;100700.50;5031000;28;20187;-49
2023/03/18 08:11:49;;;;;;;10.60;7.50;;;;;;;10.00;100.00;100691.31;5026919;28;20187;-47
2023/03/18 08:14:14;;;;;;;10.77;7.82;;;;;;;10.35;100.00;100684.63;5027808;28;20251;-48
2023/03/18 08:16:40;;;;;;;11.70;7.70;;;;;;;10.76;99.89;100689.22;5035848;28;20195;-47
2023/03/18 08:19:05;;;;;;;11.15;7.82;;;;;;;11.29;98.72;100672.69;5037134;28;20320;-48
2023/03/18 08:21:31;;;;;;;9.93;7.03;;;;;;;11.13;97.09;100684.09;5041503;28;20191;-48
2023/03/18 08:23:56;;;;;;;10.88;7.43;;;;;;;11.16;95.85;100682.22;5019897;28;20208;-47
2023/03/18 08:26:22;;;;;;;11.38;7.13;;;;;;;11.12;95.07;100687.69;5030674;28;20694;-47
2023/03/18 08:28:48;;;;;;;11.20;7.43;;;;;;;11.19;94.49;100690.09;5031005;28;20177;-49
2023/03/18 08:31:14;;;;;;;11.52;7.45;;;;;;;11.35;93.34;100688.53;5032837;28;20471;-48
2023/03/18 08:33:40;;;;;;;10.52;7.43;;;;;;;11.14;92.81;100690.31;5028924;28;20203;-50
2023/03/18 08:36:07;;;;;;;8.77;6.93;;;;;;;11.17;92.75;100671.41;5041859;28;20176;-49
2023/03/18 08:38:33;;;;;;;8.85;7.32;;;;;;;11.24;92.67;100677.38;5032496;28;20196;-48
2023/03/18 08:40:58;;;;;;;11.93;8.48;;;;;;;11.44;92.47;100687.25;5037978;28;20172;-49
2023/03/18 08:43:24;;;;;;;10.48;8.38;;;;;;;11.55;92.42;100688.50;5018697;28;20185;-48
2023/03/18 08:45:53;;;;;;;11.25;8.23;;;;;;;11.88;91.94;100692.47;5031320;28;20724;-48
2023/03/18 08:48:20;;;;;;;11.65;8.45;;;;;;;12.03;90.89;100688.19;5034675;28;20210;-47
2023/03/18 08:50:46;;;;;;;11.70;8.70;;;;;;;11.77;90.10;100684.84;5024802;28;20337;-49
2023/03/18 08:53:12;;;;;;;14.48;9.20;;;;;;;11.61;90.20;100679.31;5028234;28;20179;-48
2023/03/18 08:55:38;;;;;;;12.93;9.82;;;;;;;11.53;90.23;100698.44;5016807;28;20179;-48
2023/03/18 08:58:04;;;;;;;12.93;9.05;;;;;;;11.58;90.34;100689.31;5032330;28;20569;-47
2023/03/18 09:00:31;;;;;;;13.90;10.00;;;;;;;11.59;90.20;100691.03;5033583;28;20204;-49
2023/03/18 09:02:57;;;;;;;14.18;9.38;;;;;;;11.52;90.52;100702.06;5026397;28;20203;-50
2023/03/18 09:05:23;;;;;;;12.65;10.00;;;;;;;11.37;90.63;100712.56;5041882;28;20303;-47
2023/03/18 09:07:51;;;;;;;12.77;10.65;;;;;;;11.49;90.76;100723.66;5036419;28;20206;-47
2023/03/18 09:10:17;;;;;;;11.73;10.52;;;;;;;11.43;90.75;100718.53;5030803;28;20172;-46
2023/03/18 09:12:44;;;;;;;14.65;10.75;;;;;;;11.55;90.88;100723.38;5011836;28;20198;-50
2023/03/18 09:15:11;;;;;;;14.95;10.48;;;;;;;11.57;91.01;100727.78;5032645;28;20261;-49
2023/03/18 09:17:39;;;;;;;13.25;10.68;;;;;;;11.70;91.01;100740.63;5040061;28;20614;-49
2023/03/18 09:20:07;;;;;;;12.80;10.48;;;;;;;11.89;90.65;100737.13;5032052;28;20554;-49
2023/03/18 09:22:33;;;;;;;13.63;10.70;;;;;;;11.98;90.20;100738.53;5029527;28;20327;-47
2023/03/18 09:24:59;;;;;;;14.15;10.95;;;;;;;12.13;89.54;100743.19;5031324;28;20218;-50
2023/03/18 09:27:25;;;;;;;12.45;11.02;;;;;;;12.13;89.17;100752.16;5038302;28;20176;-50
2023/03/18 09:29:50;;;;;;;13.23;10.70;;;;;;;12.20;88.44;100742.00;5027138;28;20659;-48
2023/03/18 09:32:16;;;;;;;13.57;10.98;;;;;;;12.19;88.21;100742.06;5031220;28;20176;-47
2023/03/18 09:34:43;;;;;;;15.57;11.07;;;;;;;12.40;88.17;100732.09;5039737;28;20211;-48
2023/03/18 09:37:09;;;;;;;15.02;11.35;;;;;;;12.45;87.55;100740.84;5041596;28;20188;-49
2023/03/18 09:39:36;;;;;;;15.27;11.50;;;;;;;12.44;86.78;100733.72;5030223;28;20211;-51
2023/03/18 09:42:14;;;;;;;16.98;11.77;;;;;;;12.58;87.09;100732.09;5033534;28;20194;-50
2023/03/18 09:44:41;;;;;;;17.25;14.35;;;;;;;12.62;86.60;100730.16;5036283;28;20337;-47
2023/03/18 09:47:12;;;;;;;19.95;17.83;;;;;;;12.48;86.33;100730.78;5034528;28;20229;-49
2023/03/18 09:49:47;;;;;;;21.33;19.13;;;;;;;12.40;86.00;100742.84;5033756;28;20262;-50
2023/03/18 09:52:15;;;;;;;20.65;17.25;;;;;;;12.54;86.25;100745.78;5032092;28;20543;-47
2023/03/18 09:54:44;;;;;;;21.70;15.57;;;;;;;12.64;86.05;100739.03;5039414;28;20394;-47
2023/03/18 09:57:24;;;;;;;21.40;14.68;;;;;;;12.69;85.07;100733.41;5024966;28;20524;-47
2023/03/18 09:59:57;;;;;;;17.50;15.70;;;;;;;12.54;85.36;100735.88;5031234;28;20674;-47
2023/03/18 10:02:35;;;;;;;19.20;15.35;;;;;;;12.62;85.13;100743.59;5011734;28;20646;-46
2023/03/18 10:05:09;;;;;;;20.73;15.77;;;;;;;12.61;85.51;100741.84;5034430;28;20240;-49
2023/03/18 10:07:40;;;;;;;18.13;15.98;;;;;;;12.56;85.34;100754.63;5016399;28;20176;-47
2023/03/18 10:10:37;;;;;;;22.85;16.92;;;;;;;12.51;85.49;100757.53;5028628;28;20228;-48
2023/03/18 10:13:06;;;;;;;22.10;17.85;;;;;;;12.82;85.30;100768.66;5037354;28;20579;-48
2023/03/18 10:15:32;;;;;;;23.23;20.48;;;;;;;12.75;85.08;100771.63;5027670;28;20207;-47
2023/03/18 10:18:10;;;;;;;27.35;23.13;;;;;;;12.72;85.00;100762.81;5025823;28;20295;-47
2023/03/18 10:20:50;;;;;;;28.58;23.60;;;;;;;12.88;85.26;100779.06;5034365;28;20179;-47
2023/03/18 10:23:38;;;;;;;32.95;26.90;;;;;;;12.65;85.50;100766.75;5030062;28;20180;-49
2023/03/18 10:26:12;;;;;;;31.75;26.40;;;;;;;12.54;85.82;100780.72;5015942;28;20571;-49
2023/03/18 10:28:53;;;;;;;31.27;26.83;;;;;;;12.54;86.17;100776.19;5026237;28;20196;-49
2023/03/18 10:31:32;;;;;;;32.72;26.73;;;;;;;12.23;86.76;100787.50;5032727;28;20187;-48
2023/03/18 10:34:08;;;;;;;31.60;26.23;;;;;;;12.02;87.64;100796.53;5034824;28;20207;-48
2023/03/18 10:36:44;;;;;;;30.77;27.40;;;;;;;12.02;88.47;100791.16;5022325;28;20656;-48
2023/03/18 10:39:14;;;;;;;30.60;27.27;;;;;;;11.94;89.04;100791.53;5026270;28;20207;-48
2023/03/18 10:41:42;;;;;;;32.38;28.40;;;;;;;12.03;89.85;100790.25;5036123;28;20680;-47
2023/03/18 10:44:32;;;;;;;28.92;25.77;;;;;;;12.24;90.71;100808.03;5026409;28;20663;-47
2023/03/18 10:47:00;;;;;;;31.52;28.08;;;;;;;11.93;92.03;100820.16;5030847;28;20207;-49
2023/03/18 10:49:31;;;;;;;37.25;28.42;;;;;;;12.03;93.80;100833.22;5033827;28;20191;-47
2023/03/18 10:52:27;;;;;;;33.15;29.17;;;;;;;12.04;94.48;100840.31;5030379;28;20180;-46
2023/03/18 10:54:53;;;;;;;37.78;28.80;;;;;;;12.01;96.08;100852.06;5030719;28;20198;-47
2023/03/18 10:57:20;;;;;;;32.13;28.63;;;;;;;11.92;96.59;100850.66;5007487;28;20183;-48
2023/03/18 10:59:49;;;;;;;34.17;29.00;;;;;;;12.02;97.08;100839.50;5035200;28;20195;-46
2023/03/18 11:02:24;;;;;;;33.53;28.35;;;;;;;12.14;97.23;100842.53;5036784;28;20222;-44
2023/03/18 11:05:18;;;;;;;35.25;29.02;;;;;;;12.31;96.99;100839.09;5025793;28;20203;-43
2023/03/18 11:08:05;;;;;;;33.83;28.90;;;;;;;12.42;96.42;100818.88;5019859;28;20246;-44
2023/03/18 11:10:35;;;;;;;33.88;28.55;;;;;;;12.30;95.74;100815.81;5029369;28;20184;-43
2023/03/18 11:13:01;;;;;;;33.13;29.30;;;;;;;12.38;95.63;100825.38;5022060;28;20725;-43
2023/03/18 11:15:28;;;;;;;35.05;30.55;;;;;;;12.52;95.33;100825.59;5027867;28;20208;-45
2023/03/18 11:17:59;;;;;;;37.35;30.92;;;;;;;12.60;94.45;100819.88;5032129;28;20190;-45
2023/03/18 11:20:36;;;;;;;32.70;28.95;;;;;;;12.78;94.23;100819.00;5034217;28;20449;-44
2023/03/18 11:23:12;;;;;;;34.78;30.63;;;;;;;12.64;93.22;100819.66;5027603;28;20186;-46
2023/03/18 11:25:39;;;;;;;37.38;29.77;;;;;;;12.49;93.13;100815.88;5026469;28;20176;-45
2023/03/18 11:28:17;;;;;;;34.13;30.23;;;;;;;12.71;93.11;100818.41;5033123;28;20608;-44
2023/03/18 11:30:53;;;;;;;37.13;30.70;;;;;;;12.59;93.08;100816.28;5007799;28;20195;-45
2023/03/18 11:33:24;;;;;;;33.88;29.00;;;;;;;12.69;92.54;100814.94;5021884;28;20284;-45